createdAt,value
2017-06-27T00:01:56.864Z,88.98
2017-06-27T00:04:22.837Z,89.32
2017-06-27T00:06:48.655Z,91.41
2017-06-27T00:09:14.505Z,88.79
2017-06-27T00:11:40.407Z,89.69
2017-06-27T00:14:06.222Z,90.46
2017-06-27T00:16:32.089Z,89.88
2017-06-27T00:18:57.953Z,90.34
2017-06-27T00:21:23.772Z,90.19
2017-06-27T00:23:49.615Z,89.59
2017-06-27T00:26:15.675Z,89.85
2017-06-27T00:28:41.556Z,88.84
2017-06-27T00:31:07.368Z,88.70
2017-06-27T00:33:33.215Z,88.98
2017-06-27T00:35:59.033Z,88.24
2017-06-27T00:38:24.871Z,89.62
2017-06-27T00:40:50.699Z,88.81
2017-06-27T00:43:16.520Z,88.97
2017-06-27T00:45:42.418Z,88.62
2017-06-27T00:48:08.301Z,88.50
2017-06-27T00:50:34.174Z,87.74
2017-06-27T00:53:00.043Z,88.26
2017-06-27T00:55:25.959Z,88.44
2017-06-27T00:57:52.255Z,89.02
2017-06-27T01:00:18.099Z,88.09
2017-06-27T01:02:44.026Z,87.47
2017-06-27T01:05:09.885Z,86.95
2017-06-27T01:07:35.719Z,88.28
2017-06-27T01:10:01.562Z,84.28
2017-06-27T01:12:27.381Z,84.61
2017-06-27T01:14:53.254Z,84.19
2017-06-27T01:17:19.146Z,84.93
2017-06-27T01:19:44.972Z,85.42
2017-06-27T01:22:10.829Z,85.51
2017-06-27T01:24:36.715Z,85.01
2017-06-27T01:27:02.628Z,84.86
2017-06-27T01:29:28.509Z,87.14
2017-06-27T01:31:54.380Z,85.88
2017-06-27T01:34:20.445Z,87.94
2017-06-27T01:36:46.346Z,90.05
2017-06-27T01:39:12.155Z,91.37
2017-06-27T01:41:38.026Z,89.85
2017-06-27T01:44:03.857Z,89.28
2017-06-27T01:46:29.701Z,89.72
2017-06-27T01:48:55.666Z,89.36
2017-06-27T01:51:21.492Z,89.03
2017-06-27T01:53:47.334Z,89.50
2017-06-27T01:56:13.240Z,90.87
2017-06-27T01:58:39.087Z,90.24
2017-06-27T02:01:04.989Z,88.79
2017-06-27T02:03:30.844Z,88.22
2017-06-27T02:05:56.753Z,88.64
2017-06-27T02:08:22.567Z,88.88
2017-06-27T02:10:48.509Z,88.32
2017-06-27T02:13:14.443Z,89.05
2017-06-27T02:15:40.325Z,89.26
2017-06-27T02:18:06.153Z,89.28
2017-06-27T02:20:32.071Z,88.03
2017-06-27T02:22:57.935Z,88.79
2017-06-27T02:25:23.817Z,89.39
2017-06-27T02:27:49.737Z,89.56
2017-06-27T02:30:15.577Z,87.90
2017-06-27T02:32:41.421Z,88.07
2017-06-27T02:35:07.277Z,88.15
2017-06-27T02:37:33.170Z,87.48
2017-06-27T02:39:59.042Z,89.54
2017-06-27T02:42:24.934Z,86.90
2017-06-27T02:44:50.873Z,86.68
2017-06-27T02:47:16.780Z,86.65
2017-06-27T02:49:42.701Z,86.69
2017-06-27T02:52:08.559Z,88.36
2017-06-27T02:54:34.373Z,87.96
2017-06-27T02:57:00.337Z,88.37
2017-06-27T02:59:26.293Z,89.11
2017-06-27T03:01:52.261Z,88.24
2017-06-27T03:04:18.070Z,88.92
2017-06-27T03:06:43.887Z,90.02
2017-06-27T03:09:09.761Z,88.94
2017-06-27T03:11:35.596Z,88.96
2017-06-27T03:14:01.540Z,88.68
2017-06-27T03:16:27.377Z,87.61
2017-06-27T03:18:53.209Z,87.87
2017-06-27T03:21:19.037Z,88.67
2017-06-27T03:23:44.908Z,88.96
2017-06-27T03:26:10.809Z,89.48
2017-06-27T03:28:36.618Z,90.19
2017-06-27T03:31:02.485Z,90.35
2017-06-27T03:33:28.344Z,90.39
2017-06-27T03:35:54.170Z,90.90
2017-06-27T03:38:19.961Z,91.22
2017-06-27T03:40:45.823Z,91.45
2017-06-27T03:43:11.729Z,91.79
2017-06-27T03:45:37.570Z,92.00
2017-06-27T03:48:03.386Z,91.72
2017-06-27T03:50:29.213Z,91.85
2017-06-27T03:52:55.001Z,90.85
2017-06-27T03:55:20.827Z,91.64
2017-06-27T03:57:48.339Z,91.37
2017-06-27T04:00:14.293Z,91.85
2017-06-27T04:02:40.118Z,91.35
2017-06-27T04:05:05.985Z,90.59
2017-06-27T04:07:31.797Z,91.15
2017-06-27T04:09:57.661Z,90.57
2017-06-27T04:12:23.498Z,90.03
2017-06-27T04:14:49.310Z,89.52
2017-06-27T04:17:15.120Z,90.30
2017-06-27T04:19:40.970Z,90.04
2017-06-27T04:22:06.876Z,90.58
2017-06-27T04:24:32.822Z,89.56
2017-06-27T04:26:58.741Z,89.37
2017-06-27T04:29:24.530Z,90.53
2017-06-27T04:31:50.397Z,90.46
2017-06-27T04:34:16.185Z,90.98
2017-06-27T04:36:42.029Z,90.27
2017-06-27T04:39:07.849Z,90.06
2017-06-27T04:41:33.649Z,89.60
2017-06-27T04:43:59.497Z,90.44
2017-06-27T04:46:40.325Z,90.72
2017-06-27T04:49:06.258Z,90.78
2017-06-27T04:51:32.090Z,90.22
2017-06-27T04:53:57.986Z,88.96
2017-06-27T04:56:23.797Z,89.56
2017-06-27T04:58:49.665Z,89.30
2017-06-27T05:01:15.629Z,89.52
2017-06-27T05:03:41.422Z,88.10
2017-06-27T05:06:07.280Z,87.16
2017-06-27T05:08:33.127Z,87.53
2017-06-27T05:10:59.115Z,87.46
2017-06-27T05:13:24.960Z,87.10
2017-06-27T05:15:50.805Z,87.63
2017-06-27T05:18:16.737Z,87.91
2017-06-27T05:20:42.525Z,87.50
2017-06-27T05:23:08.441Z,87.30
2017-06-27T05:25:34.338Z,87.15
2017-06-27T05:28:00.173Z,86.82
2017-06-27T05:30:26.251Z,87.10
2017-06-27T05:32:52.053Z,87.57
2017-06-27T05:35:17.867Z,86.90
2017-06-27T05:37:43.706Z,85.71
2017-06-27T05:40:09.540Z,84.83
2017-06-27T05:42:35.341Z,85.72
2017-06-27T05:45:01.194Z,88.03
2017-06-27T05:47:27.041Z,88.06
2017-06-27T05:49:52.854Z,88.01
2017-06-27T05:52:18.850Z,87.25
2017-06-27T05:54:44.693Z,86.93
2017-06-27T05:57:10.504Z,83.51
2017-06-27T05:59:36.537Z,83.47
2017-06-27T06:02:02.470Z,83.52
2017-06-27T06:04:28.350Z,84.09
2017-06-27T06:06:54.210Z,83.85
2017-06-27T06:09:20.021Z,85.25
2017-06-27T06:11:45.999Z,84.11
2017-06-27T06:14:11.861Z,83.49
2017-06-27T06:16:37.760Z,84.60
2017-06-27T06:19:03.626Z,85.83
2017-06-27T06:21:29.444Z,86.15
2017-06-27T06:23:55.233Z,85.82
2017-06-27T06:26:21.109Z,85.76
2017-06-27T06:28:46.950Z,85.83
2017-06-27T06:31:12.745Z,84.55
2017-06-27T06:33:38.578Z,84.08
2017-06-27T06:36:04.414Z,84.75
2017-06-27T06:38:30.213Z,84.46
2017-06-27T06:40:56.039Z,83.87
2017-06-27T06:43:22.053Z,84.32
2017-06-27T06:45:47.901Z,83.93
2017-06-27T06:48:13.806Z,82.97
2017-06-27T06:50:39.605Z,83.06
2017-06-27T06:53:05.489Z,81.33
2017-06-27T06:55:31.293Z,81.96
2017-06-27T06:57:57.113Z,82.61
2017-06-27T07:00:22.984Z,83.29
2017-06-27T07:02:48.815Z,82.63
2017-06-27T07:05:14.614Z,81.99
2017-06-27T07:07:40.477Z,82.73
2017-06-27T07:10:06.470Z,82.55
2017-06-27T07:12:32.318Z,82.42
2017-06-27T07:14:58.224Z,80.46
2017-06-27T07:17:24.172Z,78.93
2017-06-27T07:19:50.170Z,79.44
2017-06-27T07:22:15.980Z,77.82
2017-06-27T07:24:41.814Z,76.51
2017-06-27T07:27:07.718Z,75.46
2017-06-27T07:29:33.590Z,74.88
2017-06-27T07:31:59.407Z,75.53
2017-06-27T07:34:25.197Z,77.77
2017-06-27T07:36:51.034Z,77.52
2017-06-27T07:39:16.919Z,73.75
2017-06-27T07:41:42.739Z,72.67
2017-06-27T07:44:08.574Z,73.53
2017-06-27T07:46:34.487Z,73.65
2017-06-27T07:49:00.298Z,71.67
2017-06-27T07:51:26.189Z,71.50
2017-06-27T07:53:52.016Z,73.03
2017-06-27T07:56:17.837Z,73.25
2017-06-27T07:58:43.678Z,73.93
2017-06-27T08:01:09.482Z,72.77
2017-06-27T08:03:35.290Z,71.34
2017-06-27T08:06:01.128Z,70.33
2017-06-27T08:08:26.982Z,69.30
2017-06-27T08:10:52.879Z,69.70
2017-06-27T08:13:18.731Z,67.64
2017-06-27T08:15:44.610Z,67.80
2017-06-27T08:18:10.453Z,68.70
2017-06-27T08:20:36.333Z,68.47
2017-06-27T08:23:02.177Z,67.95
2017-06-27T08:25:28.000Z,68.32
2017-06-27T08:27:53.869Z,68.62
2017-06-27T08:30:19.757Z,68.58
2017-06-27T08:32:45.577Z,68.18
2017-06-27T08:35:11.414Z,67.22
2017-06-27T08:37:37.318Z,66.70
2017-06-27T08:40:03.127Z,65.19
2017-06-27T08:42:28.945Z,66.68
2017-06-27T08:44:54.870Z,66.31
2017-06-27T08:47:20.776Z,68.08
2017-06-27T08:49:46.587Z,66.03
2017-06-27T08:52:12.495Z,65.35
2017-06-27T08:54:38.327Z,63.50
2017-06-27T08:57:04.139Z,64.00
2017-06-27T08:59:30.018Z,60.37
2017-06-27T09:01:55.860Z,63.43
2017-06-27T09:04:21.703Z,61.06
2017-06-27T09:06:47.541Z,58.46
2017-06-27T09:09:13.383Z,58.71
2017-06-27T09:11:39.178Z,59.40
2017-06-27T09:14:05.062Z,59.49
2017-06-27T09:16:30.866Z,59.13
2017-06-27T09:18:56.673Z,59.42
2017-06-27T09:21:22.547Z,57.71
2017-06-27T09:23:48.478Z,58.89
2017-06-27T09:26:14.331Z,61.26
2017-06-27T09:28:40.125Z,62.63
2017-06-27T09:31:06.089Z,62.61
2017-06-27T09:33:32.061Z,61.55
2017-06-27T09:35:57.966Z,61.14
2017-06-27T09:38:30.709Z,60.95
2017-06-27T09:40:56.631Z,62.42
2017-06-27T09:43:22.431Z,61.89
2017-06-27T09:45:48.262Z,62.75
2017-06-27T09:48:14.127Z,61.91
2017-06-27T09:50:40.170Z,62.18
2017-06-27T09:53:06.052Z,61.42
2017-06-27T09:55:31.976Z,59.71
2017-06-27T09:57:58.040Z,60.36
2017-06-27T10:00:24.073Z,61.46
2017-06-27T10:02:49.901Z,59.01
2017-06-27T10:05:15.875Z,56.82
2017-06-27T10:07:41.833Z,57.21
2017-06-27T10:10:07.720Z,56.28
2017-06-27T10:12:33.736Z,54.50
2017-06-27T10:14:59.615Z,54.37
2017-06-27T10:17:25.526Z,55.05
2017-06-27T10:19:52.156Z,54.62
2017-06-27T10:22:18.055Z,54.57
2017-06-27T10:24:43.907Z,54.49
2017-06-27T10:27:09.809Z,55.46
2017-06-27T10:29:35.642Z,55.58
2017-06-27T10:32:01.452Z,53.32
2017-06-27T10:34:27.404Z,52.38
2017-06-27T10:36:53.212Z,52.29
2017-06-27T10:39:19.010Z,52.15
2017-06-27T10:41:44.883Z,53.01
2017-06-27T10:44:10.706Z,51.84
2017-06-27T10:46:36.521Z,50.60
2017-06-27T10:49:02.369Z,50.54
2017-06-27T10:51:28.276Z,50.33
2017-06-27T10:53:54.099Z,47.74
2017-06-27T10:56:19.940Z,48.16
2017-06-27T10:58:45.794Z,49.02
2017-06-27T11:01:11.611Z,47.54
2017-06-27T11:03:37.429Z,47.27
2017-06-27T11:06:03.286Z,46.48
2017-06-27T11:08:29.111Z,46.25
2017-06-27T11:10:54.998Z,45.36
2017-06-27T11:13:20.841Z,46.42
2017-06-27T11:15:46.748Z,45.44
2017-06-27T11:18:12.845Z,48.71
2017-06-27T11:20:38.849Z,47.72
2017-06-27T11:23:04.764Z,47.98
2017-06-27T11:25:30.600Z,45.44
2017-06-27T11:27:56.501Z,46.18
2017-06-27T11:30:22.435Z,45.99
2017-06-27T11:32:48.260Z,45.37
2017-06-27T11:35:14.156Z,44.48
2017-06-27T11:37:40.057Z,43.71
2017-06-27T11:40:05.881Z,45.21
2017-06-27T11:42:31.769Z,45.49
2017-06-27T11:44:57.821Z,46.94
2017-06-27T11:47:23.815Z,45.06
2017-06-27T11:49:49.769Z,43.57
2017-06-27T11:52:15.605Z,47.23
2017-06-27T11:54:41.459Z,47.47
2017-06-27T11:57:07.295Z,44.92
2017-06-27T11:59:33.448Z,46.05
2017-06-27T12:02:09.564Z,41.96
2017-06-27T12:04:35.510Z,41.31
2017-06-27T12:07:05.422Z,39.56
2017-06-27T12:09:31.283Z,37.47
2017-06-27T12:11:57.159Z,37.72
2017-06-27T12:14:23.051Z,38.97
2017-06-27T12:16:48.947Z,42.36
2017-06-27T12:19:14.776Z,39.84
2017-06-27T12:21:41.605Z,42.43
2017-06-27T12:24:07.419Z,43.35
2017-06-27T12:26:33.328Z,42.46
2017-06-27T12:28:59.289Z,44.95
2017-06-27T12:31:40.110Z,42.96
2017-06-27T12:34:06.106Z,41.26
2017-06-27T12:36:32.024Z,45.71
2017-06-27T12:38:57.916Z,41.79
2017-06-27T12:41:23.885Z,39.20
2017-06-27T12:43:49.724Z,40.97
2017-06-27T12:46:15.563Z,41.98
2017-06-27T12:48:41.429Z,40.29
2017-06-27T12:51:07.415Z,41.85
2017-06-27T12:53:33.307Z,42.14
2017-06-27T12:55:59.260Z,40.78
2017-06-27T12:58:25.136Z,38.72
2017-06-27T13:00:51.122Z,40.35
2017-06-27T13:03:16.968Z,39.83
2017-06-27T13:05:42.842Z,38.95
2017-06-27T13:08:08.763Z,37.56
2017-06-27T13:10:34.610Z,40.95
2017-06-27T13:13:00.468Z,40.03
2017-06-27T13:15:26.440Z,41.22
2017-06-27T13:17:52.344Z,41.64
2017-06-27T13:20:18.497Z,38.42
2017-06-27T13:22:44.407Z,37.49
2017-06-27T13:25:10.301Z,37.50
2017-06-27T13:27:36.143Z,39.99
2017-06-27T13:30:02.026Z,38.82
2017-06-27T13:32:27.949Z,37.90
2017-06-27T13:34:53.840Z,36.89
2017-06-27T13:37:19.928Z,38.39
2017-06-27T13:39:45.823Z,35.80
2017-06-27T13:42:11.715Z,38.23
2017-06-27T13:44:37.739Z,40.95
2017-06-27T13:47:03.568Z,38.16
2017-06-27T13:49:29.501Z,37.16
2017-06-27T13:51:55.397Z,36.44
2017-06-27T13:54:21.364Z,36.19
2017-06-27T13:56:47.219Z,39.15
2017-06-27T13:59:13.606Z,37.34
2017-06-27T14:01:39.529Z,36.21
2017-06-27T14:04:06.321Z,38.25
2017-06-27T14:06:32.819Z,40.66
2017-06-27T14:08:58.720Z,37.87
2017-06-27T14:11:24.592Z,34.82
2017-06-27T14:13:50.684Z,35.97
2017-06-27T14:16:16.555Z,38.10
2017-06-27T14:18:42.403Z,38.50
2017-06-27T14:21:08.358Z,37.58
2017-06-27T14:23:34.242Z,35.68
2017-06-27T14:26:00.085Z,40.03
2017-06-27T14:28:33.087Z,39.27
2017-06-27T14:30:58.953Z,39.33
2017-06-27T14:33:24.793Z,38.96
2017-06-27T14:35:51.120Z,37.50
2017-06-27T14:38:16.998Z,35.98
2017-06-27T14:40:42.875Z,35.43
2017-06-27T14:43:08.789Z,36.17
2017-06-27T14:45:34.688Z,36.38
2017-06-27T14:48:01.104Z,34.88
2017-06-27T14:50:27.064Z,36.15
2017-06-27T14:52:52.943Z,35.34
2017-06-27T14:55:18.771Z,37.37
2017-06-27T14:57:44.603Z,38.29
2017-06-27T15:00:10.568Z,37.30
2017-06-27T15:02:36.406Z,38.43
2017-06-27T15:05:02.265Z,40.00
2017-06-27T15:07:28.152Z,39.43
2017-06-27T15:09:54.094Z,40.70
2017-06-27T15:12:19.967Z,40.19
2017-06-27T15:14:45.819Z,42.77
2017-06-27T15:17:11.798Z,43.61
2017-06-27T15:19:37.687Z,41.73
2017-06-27T15:22:03.593Z,42.50
2017-06-27T15:24:29.456Z,45.02
2017-06-27T15:26:55.416Z,47.08
2017-06-27T15:29:21.258Z,45.97
2017-06-27T15:31:47.200Z,47.45
2017-06-27T15:34:13.072Z,48.40
2017-06-27T15:36:38.969Z,49.89
2017-06-27T15:39:04.863Z,50.28
2017-06-27T15:41:30.692Z,52.31
2017-06-27T15:43:56.602Z,51.45
2017-06-27T15:46:22.544Z,51.09
2017-06-27T15:48:48.396Z,50.55
2017-06-27T15:51:14.316Z,50.10
2017-06-27T15:53:40.157Z,48.97
2017-06-27T15:56:05.983Z,49.16
2017-06-27T15:58:32.054Z,49.97
2017-06-27T16:00:57.955Z,49.87
2017-06-27T16:03:24.600Z,49.10
2017-06-27T16:05:50.521Z,46.87
2017-06-27T16:08:16.361Z,48.09
2017-06-27T16:10:42.337Z,46.76
2017-06-27T16:13:08.230Z,46.21
2017-06-27T16:15:34.101Z,45.33
2017-06-27T16:18:00.023Z,43.98
2017-06-27T16:20:26.016Z,44.96
2017-06-27T16:22:52.031Z,46.05
2017-06-27T16:25:17.891Z,45.61
2017-06-27T16:27:43.822Z,44.91
2017-06-27T16:30:09.707Z,45.81
2017-06-27T16:32:35.664Z,46.06
2017-06-27T16:35:01.516Z,46.12
2017-06-27T16:37:27.383Z,47.25
2017-06-27T16:39:53.248Z,48.81
2017-06-27T16:42:19.128Z,49.47
2017-06-27T16:44:45.052Z,49.57
2017-06-27T16:47:10.900Z,50.04
2017-06-27T16:49:36.833Z,50.73
2017-06-27T16:52:02.683Z,53.75
2017-06-27T16:54:28.551Z,56.47
2017-06-27T16:56:54.422Z,56.30
2017-06-27T16:59:20.273Z,54.82
2017-06-27T17:01:46.100Z,61.32
2017-06-27T17:04:11.992Z,61.83
2017-06-27T17:06:37.932Z,63.22
2017-06-27T17:09:03.829Z,68.27
2017-06-27T17:11:29.911Z,69.87
2017-06-27T17:13:55.916Z,68.92
2017-06-27T17:16:21.940Z,66.16
2017-06-27T17:18:47.810Z,68.16
2017-06-27T17:21:13.765Z,65.61
2017-06-27T17:23:39.730Z,63.96
2017-06-27T17:26:05.581Z,64.84
2017-06-27T17:28:31.443Z,65.87
2017-06-27T17:30:57.332Z,65.27
2017-06-27T17:33:23.174Z,63.47
2017-06-27T17:35:49.053Z,63.34
2017-06-27T17:38:14.881Z,64.02
2017-06-27T17:40:40.885Z,64.77
2017-06-27T17:43:06.760Z,65.58
2017-06-27T17:45:32.647Z,66.52
2017-06-27T17:47:58.463Z,66.17
2017-06-27T17:50:24.336Z,63.63
2017-06-27T17:52:50.151Z,63.86
2017-06-27T17:55:15.982Z,64.54
2017-06-27T17:57:41.877Z,65.62
2017-06-27T18:00:07.753Z,66.38
2017-06-27T18:02:33.577Z,66.61
2017-06-27T18:04:59.508Z,66.57
2017-06-27T18:07:25.355Z,66.67
2017-06-27T18:09:51.537Z,66.95
2017-06-27T18:12:17.605Z,68.08
2017-06-27T18:14:43.444Z,67.98
2017-06-27T18:17:09.323Z,67.18
2017-06-27T18:19:35.147Z,66.37
2017-06-27T18:22:01.117Z,66.31
2017-06-27T18:24:26.964Z,65.99
2017-06-27T18:26:52.800Z,64.87
2017-06-27T18:29:18.734Z,64.66
2017-06-27T18:31:44.560Z,65.25
2017-06-27T18:34:10.477Z,65.83
2017-06-27T18:36:36.346Z,67.59
2017-06-27T18:39:02.261Z,67.92
2017-06-27T18:41:28.182Z,67.56
2017-06-27T18:43:54.133Z,69.77
2017-06-27T18:46:20.096Z,71.04
2017-06-27T18:48:45.964Z,73.43
2017-06-27T18:51:11.790Z,74.36
2017-06-27T18:53:37.650Z,74.74
2017-06-27T18:56:03.531Z,75.53
2017-06-27T18:58:29.408Z,75.44
2017-06-27T19:00:55.261Z,74.39
2017-06-27T19:03:21.095Z,73.44
2017-06-27T19:05:47.064Z,74.11
2017-06-27T19:08:13.057Z,74.57
2017-06-27T19:10:39.109Z,73.36
2017-06-27T19:13:05.169Z,72.98
2017-06-27T19:15:31.097Z,72.10
2017-06-27T19:17:56.993Z,72.39
2017-06-27T19:20:22.908Z,72.38
2017-06-27T19:22:48.775Z,72.40
2017-06-27T19:25:14.683Z,72.53
2017-06-27T19:27:40.543Z,74.79
2017-06-27T19:30:06.400Z,73.40
2017-06-27T19:32:32.218Z,74.08
2017-06-27T19:34:58.105Z,73.22
2017-06-27T19:37:23.940Z,73.23
2017-06-27T19:39:49.940Z,73.84
2017-06-27T19:42:15.818Z,75.65
2017-06-27T19:44:41.771Z,76.07
2017-06-27T19:47:07.771Z,74.28
2017-06-27T19:49:33.625Z,73.49
2017-06-27T19:51:59.512Z,74.37
2017-06-27T19:54:25.391Z,74.64
2017-06-27T19:56:51.255Z,75.30
2017-06-27T19:59:17.105Z,73.94
2017-06-27T20:01:43.049Z,74.08
2017-06-27T20:04:08.940Z,76.74
2017-06-27T20:06:34.787Z,76.42
2017-06-27T20:09:00.766Z,76.03
2017-06-27T20:11:26.771Z,77.32
2017-06-27T20:13:52.724Z,78.91
2017-06-27T20:16:18.622Z,81.90
2017-06-27T20:18:44.587Z,81.27
2017-06-27T20:21:10.434Z,80.57
2017-06-27T20:23:36.617Z,79.06
2017-06-27T20:26:02.553Z,78.43
2017-06-27T20:28:28.516Z,78.40
2017-06-27T20:30:54.409Z,77.73
2017-06-27T20:33:20.292Z,77.49
2017-06-27T20:35:46.279Z,77.87
2017-06-27T20:38:12.226Z,77.82
2017-06-27T20:40:38.221Z,78.22
2017-06-27T20:43:04.846Z,78.33
2017-06-27T20:45:30.753Z,78.06
2017-06-27T20:47:56.708Z,78.12
2017-06-27T20:50:22.725Z,78.43
2017-06-27T20:52:48.678Z,78.69
2017-06-27T20:55:14.592Z,78.64
2017-06-27T20:57:40.461Z,79.06
2017-06-27T21:00:06.516Z,79.47
2017-06-27T21:02:32.369Z,79.15
2017-06-27T21:04:58.380Z,79.64
2017-06-27T21:07:24.326Z,79.60
2017-06-27T21:09:50.200Z,79.92
2017-06-27T21:12:16.268Z,80.41
2017-06-27T21:14:42.225Z,80.14
2017-06-27T21:17:08.208Z,80.18
2017-06-27T21:19:34.168Z,80.21
2017-06-27T21:22:00.053Z,80.02
2017-06-27T21:24:26.048Z,80.49
2017-06-27T21:26:51.975Z,81.02
2017-06-27T21:29:18.022Z,80.66
2017-06-27T21:31:43.876Z,80.51
2017-06-27T21:34:09.768Z,80.87
2017-06-27T21:36:35.672Z,80.53
2017-06-27T21:39:01.509Z,80.34
2017-06-27T21:41:27.404Z,80.54
2017-06-27T21:43:53.425Z,80.31
2017-06-27T21:46:19.344Z,80.61
2017-06-27T21:48:45.227Z,80.38
2017-06-27T21:51:11.091Z,81.51
2017-06-27T21:53:37.032Z,81.10
2017-06-27T21:56:02.885Z,80.64
2017-06-27T21:58:28.965Z,80.78
2017-06-27T22:00:54.872Z,81.30
2017-06-27T22:03:20.811Z,81.15
2017-06-27T22:05:46.716Z,81.57
2017-06-27T22:08:12.686Z,81.75
2017-06-27T22:10:38.527Z,82.17
2017-06-27T22:13:04.382Z,82.39
2017-06-27T22:15:30.317Z,81.63
2017-06-27T22:17:56.236Z,82.98
2017-06-27T22:20:22.119Z,82.54
2017-06-27T22:22:48.178Z,84.06
2017-06-27T22:25:14.091Z,84.10
2017-06-27T22:27:40.064Z,84.82
2017-06-27T22:30:05.929Z,84.36
2017-06-27T22:32:31.764Z,85.16
2017-06-27T22:34:57.627Z,85.37
2017-06-27T22:37:23.509Z,83.72
2017-06-27T22:39:49.408Z,85.39
2017-06-27T22:42:15.322Z,85.98
2017-06-27T22:44:41.268Z,85.70
2017-06-27T22:47:07.107Z,86.61
2017-06-27T22:49:32.984Z,84.81
2017-06-27T22:51:58.908Z,85.21
2017-06-27T22:54:24.831Z,84.21
2017-06-27T22:56:50.827Z,84.71
2017-06-27T22:59:16.782Z,84.59
2017-06-27T23:01:42.616Z,83.74
2017-06-27T23:04:08.503Z,82.94
2017-06-27T23:06:34.441Z,84.18
2017-06-27T23:09:00.332Z,84.45
2017-06-27T23:11:26.277Z,83.43
2017-06-27T23:13:52.125Z,83.54
2017-06-27T23:16:18.013Z,84.16
2017-06-27T23:18:44.007Z,83.50
2017-06-27T23:21:09.869Z,84.28
2017-06-27T23:23:35.786Z,83.53
2017-06-27T23:26:02.493Z,84.11
2017-06-27T23:28:28.528Z,84.65
2017-06-27T23:30:54.478Z,85.00
2017-06-27T23:33:20.340Z,84.64
2017-06-27T23:35:53.127Z,84.41
2017-06-27T23:38:19.104Z,84.76
2017-06-27T23:40:44.981Z,84.81
2017-06-27T23:43:11.017Z,85.62
2017-06-27T23:45:37.000Z,86.20
2017-06-27T23:48:02.846Z,86.00
2017-06-27T23:50:28.730Z,85.38
2017-06-27T23:52:54.621Z,85.41
2017-06-27T23:55:20.451Z,85.52
2017-06-27T23:57:48.578Z,85.93
